Time;durP1;ratioP1;P1;durP2;ratioP2;P2;SDS_P1;SDS_P2;PMS_P1;PMS_P2;Temp;Humidity;BMP_temperature;BMP_pressure;BME280_temperature;BME280_humidity;BME280_pressure;Samples;Min_cycle;Max_cycle;Signal;HPM_P1;HPM_P2
2023/05/10 00:00:35;;;;;;;10.17;4.17;;;;;;;12.74;100.00;100493.66;7392931;19;20402;-36
2023/05/10 00:03:05;;;;;;;9.13;3.80;;;;;;;12.77;100.00;100491.13;7389310;19;20645;-37
2023/05/10 00:05:35;;;;;;;9.00;4.17;;;;;;;12.75;100.00;100485.03;7392138;19;20467;-37
2023/05/10 00:08:05;;;;;;;14.33;8.63;;;;;;;12.75;100.00;100476.38;7388158;19;20830;-37
2023/05/10 00:10:37;;;;;;;10.00;3.50;;;;;;;12.69;100.00;100475.41;7392494;19;20395;-37
2023/05/10 00:13:06;;;;;;;15.23;3.63;;;;;;;12.65;100.00;100470.06;7390417;19;20403;-37
2023/05/10 00:15:36;;;;;;;9.57;3.60;;;;;;;12.63;100.00;100466.56;7394247;19;20419;-38
2023/05/10 00:18:06;;;;;;;11.40;3.90;;;;;;;12.58;100.00;100455.19;7387538;19;20407;-38
2023/05/10 00:20:36;;;;;;;8.20;4.37;;;;;;;12.59;100.00;100449.19;7398289;19;20947;-37
2023/05/10 00:23:05;;;;;;;13.80;4.90;;;;;;;12.55;100.00;100441.34;7390738;19;20447;-37
2023/05/10 00:25:38;;;;;;;7.00;3.73;;;;;;;12.49;100.00;100435.09;7392887;19;20420;-37
2023/05/10 00:28:07;;;;;;;7.30;3.60;;;;;;;12.47;100.00;100429.91;7390632;19;20414;-38
2023/05/10 00:30:37;;;;;;;7.33;4.00;;;;;;;12.41;100.00;100421.97;7392705;19;20418;-38
2023/05/10 00:33:06;;;;;;;14.63;5.77;;;;;;;12.43;100.00;100415.13;7390227;19;20418;-36
2023/05/10 00:35:37;;;;;;;11.20;4.40;;;;;;;12.39;100.00;100418.44;7393271;19;20388;-39
2023/05/10 00:38:07;;;;;;;8.63;3.90;;;;;;;12.36;100.00;100402.84;7390924;19;20414;-38
2023/05/10 00:40:40;;;;;;;7.57;4.00;;;;;;;12.33;100.00;100402.75;7392649;19;20388;-39
2023/05/10 00:43:10;;;;;;;10.13;4.13;;;;;;;12.32;100.00;100390.66;7391550;19;20460;-39
2023/05/10 00:45:40;;;;;;;8.70;4.60;;;;;;;12.32;100.00;100395.81;7392993;19;20388;-38
2023/05/10 00:48:10;;;;;;;8.30;4.00;;;;;;;12.34;100.00;100395.03;7390722;19;20423;-37
2023/05/10 00:50:39;;;;;;;8.37;3.53;;;;;;;12.24;100.00;100393.91;7397481;19;20404;-38
2023/05/10 00:53:10;;;;;;;8.17;4.00;;;;;;;12.26;100.00;100392.22;7394133;19;20752;-38
2023/05/10 00:55:42;;;;;;;8.27;3.87;;;;;;;12.21;100.00;100378.28;7394094;19;20403;-41
2023/05/10 00:58:12;;;;;;;14.30;4.47;;;;;;;12.18;100.00;100372.13;7390188;19;20507;-38
2023/05/10 01:00:44;;;;;;;7.37;4.17;;;;;;;12.13;100.00;100362.56;7392480;19;20767;-37
2023/05/10 01:03:14;;;;;;;8.30;4.17;;;;;;;12.08;100.00;100351.19;7391028;19;20419;-37
2023/05/10 01:05:43;;;;;;;10.33;4.90;;;;;;;12.09;100.00;100355.53;7392553;19;20411;-38
2023/05/10 01:08:13;;;;;;;9.13;4.10;;;;;;;12.05;100.00;100345.06;7390654;19;20431;-43
2023/05/10 01:10:46;;;;;;;8.30;4.03;;;;;;;11.99;100.00;100344.00;7392333;19;20460;-42
2023/05/10 01:13:15;;;;;;;7.60;4.17;;;;;;;11.98;100.00;100334.50;7390489;19;20833;-37
2023/05/10 01:15:45;;;;;;;8.30;4.33;;;;;;;11.98;100.00;100334.50;7394325;19;20387;-37
2023/05/10 01:18:15;;;;;;;11.13;4.03;;;;;;;11.95;100.00;100325.78;7389126;19;20414;-38
2023/05/10 01:20:49;;;;;;;11.53;4.37;;;;;;;11.89;100.00;100324.78;7392095;19;20404;-37
2023/05/10 01:23:38;;;;;;;9.17;4.53;;;;;;;11.87;100.00;100316.09;7389963;19;20403;-38
2023/05/10 01:26:18;;;;;;;8.53;4.60;;;;;;;11.91;100.00;100317.06;7391799;19;20438;-37
2023/05/10 01:29:14;;;;;;;7.37;3.70;;;;;;;11.83;100.00;100316.84;7389555;19;20798;-40
2023/05/10 01:32:07;;;;;;;8.80;4.20;;;;;;;11.78;100.00;100309.78;7392251;19;20959;-38
2023/05/10 01:34:40;;;;;;;8.23;4.60;;;;;;;11.76;100.00;100312.31;7392454;19;20419;-37
2023/05/10 01:37:13;;;;;;;12.07;4.13;;;;;;;11.75;100.00;100310.56;7389253;19;20440;-37
2023/05/10 01:39:48;;;;;;;9.63;4.80;;;;;;;11.69;100.00;100300.91;7390569;19;20392;-40
2023/05/10 01:42:21;;;;;;;14.93;4.63;;;;;;;11.66;100.00;100292.19;7387797;19;20403;-38
2023/05/10 01:44:56;;;;;;;10.80;3.97;;;;;;;11.64;100.00;100297.31;7391479;19;21295;-38
2023/05/10 01:47:34;;;;;;;9.03;3.93;;;;;;;11.58;100.00;100282.50;7387904;19;20451;-37
2023/05/10 01:50:06;;;;;;;7.77;4.40;;;;;;;11.61;100.00;100277.44;7390684;19;20398;-37
2023/05/10 01:52:39;;;;;;;6.97;4.13;;;;;;;11.60;100.00;100283.41;7387735;19;20928;-37
2023/05/10 01:55:12;;;;;;;8.90;3.77;;;;;;;11.57;100.00;100249.75;7390729;19;20919;-37
2023/05/10 01:57:43;;;;;;;7.97;3.80;;;;;;;11.59;100.00;100242.06;7388663;19;20969;-38
2023/05/10 02:00:14;;;;;;;7.73;4.20;;;;;;;11.56;100.00;100232.50;7390960;19;20391;-37
2023/05/10 02:02:47;;;;;;;8.10;3.83;;;;;;;11.59;100.00;100234.31;7386401;19;20422;-39
2023/05/10 02:05:18;;;;;;;7.13;3.70;;;;;;;11.56;100.00;100201.50;7391219;19;20463;-39
2023/05/10 02:07:47;;;;;;;9.03;4.10;;;;;;;11.51;100.00;100217.69;7384943;19;20411;-38
2023/05/10 02:10:18;;;;;;;8.70;4.00;;;;;;;11.56;100.00;100186.00;7389798;19;21212;-38
2023/05/10 02:12:50;;;;;;;6.80;3.60;;;;;;;11.41;100.00;100214.84;7387735;19;20419;-37
2023/05/10 02:15:26;;;;;;;9.67;4.47;;;;;;;11.37;100.00;100194.91;7390541;19;20487;-38
2023/05/10 02:17:59;;;;;;;8.47;3.73;;;;;;;11.43;100.00;100182.19;7388989;19;20545;-37
2023/05/10 02:20:29;;;;;;;8.20;3.87;;;;;;;11.37;100.00;100176.84;7391417;19;20412;-37
2023/05/10 02:23:00;;;;;;;7.53;4.87;;;;;;;11.34;100.00;100181.91;7388469;19;20403;-37
2023/05/10 02:25:31;;;;;;;9.47;4.67;;;;;;;11.35;100.00;100166.44;7389943;19;20939;-38
2023/05/10 02:28:02;;;;;;;8.47;4.10;;;;;;;11.31;100.00;100192.16;7383614;19;20430;-38
2023/05/10 02:30:34;;;;;;;7.93;4.10;;;;;;;11.34;100.00;100171.59;7389472;19;20930;-37
2023/05/10 02:33:07;;;;;;;6.53;3.70;;;;;;;11.23;100.00;100165.22;7387415;19;20400;-36
2023/05/10 02:35:37;;;;;;;7.60;4.53;;;;;;;11.16;100.00;100172.78;7389126;19;20422;-37
2023/05/10 02:38:08;;;;;;;8.47;4.30;;;;;;;11.14;100.00;100163.25;7386654;19;20463;-37
2023/05/10 02:40:39;;;;;;;6.53;3.80;;;;;;;11.16;100.00;100144.38;7391573;19;20423;-37
2023/05/10 02:43:12;;;;;;;9.57;4.43;;;;;;;11.17;100.00;100115.16;7388070;19;20427;-37
2023/05/10 02:45:42;;;;;;;8.27;3.73;;;;;;;11.06;100.00;100127.75;7388916;19;20399;-37
2023/05/10 02:48:14;;;;;;;8.93;4.20;;;;;;;11.05;100.00;100130.28;7386835;19;20426;-38
2023/05/10 02:50:50;;;;;;;7.80;4.23;;;;;;;11.07;100.00;100128.59;7389701;19;20920;-42
2023/05/10 02:53:25;;;;;;;11.33;4.20;;;;;;;11.05;100.00;100109.63;7386431;19;20993;-37
2023/05/10 02:55:55;;;;;;;10.30;5.10;;;;;;;11.00;100.00;100106.91;7389661;19;20395;-37
2023/05/10 02:58:25;;;;;;;11.17;4.53;;;;;;;10.95;100.00;100100.75;7391007;19;20411;-38
2023/05/10 03:00:54;;;;;;;12.00;4.10;;;;;;;10.88;100.00;100102.25;7390725;19;20416;-37
2023/05/10 03:03:29;;;;;;;9.13;4.50;;;;;;;10.92;100.00;100075.72;7387601;19;20418;-37
2023/05/10 03:05:59;;;;;;;15.23;4.23;;;;;;;10.90;100.00;100073.91;7391211;19;20438;-38
2023/05/10 03:08:29;;;;;;;10.00;5.77;;;;;;;10.83;100.00;100072.88;7386481;19;20475;-37
2023/05/10 03:11:10;;;;;;;7.93;3.70;;;;;;;10.76;100.00;100058.00;7389421;19;20381;-42
2023/05/10 03:13:47;;;;;;;7.40;4.30;;;;;;;10.76;100.00;100056.31;7387508;19;20447;-38
2023/05/10 03:16:18;;;;;;;12.87;4.10;;;;;;;10.89;100.00;100052.41;7388729;19;20404;-37
2023/05/10 03:18:57;;;;;;;9.60;4.63;;;;;;;10.92;100.00;100047.31;7385208;19;20442;-37
2023/05/10 03:21:28;;;;;;;8.53;4.20;;;;;;;10.87;100.00;100054.06;7390776;19;20407;-37
2023/05/10 03:24:02;;;;;;;7.27;4.10;;;;;;;10.82;100.00;100059.91;7385189;19;20422;-37
2023/05/10 03:26:31;;;;;;;8.63;4.73;;;;;;;10.86;100.00;100041.97;7386930;19;20420;-37
2023/05/10 03:29:01;;;;;;;16.43;7.50;;;;;;;10.87;100.00;100038.56;7387300;19;20455;-38
2023/05/10 03:31:31;;;;;;;14.60;7.73;;;;;;;10.93;100.00;100027.56;7388189;19;20387;-36
2023/05/10 03:34:03;;;;;;;12.97;6.83;;;;;;;10.90;100.00;100042.94;7386749;19;20487;-38
2023/05/10 03:36:33;;;;;;;10.60;5.70;;;;;;;10.87;100.00;100038.56;7387713;19;20411;-38
2023/05/10 03:39:02;;;;;;;10.23;4.70;;;;;;;10.82;100.00;100040.13;7386496;19;20422;-37
2023/05/10 03:41:32;;;;;;;10.40;4.40;;;;;;;10.76;100.00;100050.28;7387597;19;20810;-37
2023/05/10 03:44:01;;;;;;;12.00;4.40;;;;;;;10.87;100.00;100027.38;7386550;19;20420;-36
2023/05/10 03:46:31;;;;;;;7.40;4.27;;;;;;;10.76;100.00;100034.78;7386925;19;20411;-36
2023/05/10 03:49:03;;;;;;;9.90;3.90;;;;;;;10.72;100.00;100027.81;7386051;19;20439;-37
2023/05/10 03:51:33;;;;;;;9.80;4.30;;;;;;;10.71;100.00;100029.50;7387731;19;20388;-37
2023/05/10 03:54:02;;;;;;;7.53;3.90;;;;;;;10.72;100.00;100035.56;7386851;19;21164;-38
2023/05/10 03:56:32;;;;;;;9.10;3.93;;;;;;;10.74;100.00;100032.19;7387189;19;20389;-36
2023/05/10 03:59:06;;;;;;;9.60;5.23;;;;;;;10.72;100.00;100012.34;7384521;19;20418;-37
2023/05/10 04:01:36;;;;;;;7.47;4.47;;;;;;;10.84;100.00;100002.38;7387929;19;20395;-37
2023/05/10 04:04:09;;;;;;;8.73;4.07;;;;;;;10.75;100.00;100020.16;7385750;19;20531;-38
2023/05/10 04:06:38;;;;;;;9.63;3.87;;;;;;;10.75;100.00;100014.97;7386066;19;20411;-37
2023/05/10 04:09:08;;;;;;;7.83;4.03;;;;;;;10.84;100.00;100002.38;7385939;19;20423;-36
2023/05/10 04:11:37;;;;;;;8.53;4.83;;;;;;;10.83;100.00;100025.53;7387304;19;20399;-36
2023/05/10 04:14:07;;;;;;;9.83;4.63;;;;;;;10.71;100.00;100023.50;7385671;19;20512;-38
2023/05/10 04:16:36;;;;;;;8.40;4.70;;;;;;;10.81;100.00;100002.25;7389648;19;20415;-36
2023/05/10 04:19:08;;;;;;;15.10;7.80;;;;;;;10.82;100.00;100014.31;7385202;19;20502;-37
2023/05/10 04:21:39;;;;;;;8.50;5.00;;;;;;;10.84;100.00;100007.53;7386551;19;20738;-37
2023/05/10 04:24:08;;;;;;;11.17;4.37;;;;;;;10.86;100.00;100023.91;7384994;19;20423;-36
2023/05/10 04:26:38;;;;;;;9.83;4.80;;;;;;;10.82;100.00;100029.81;7384806;19;20958;-37
2023/05/10 04:29:07;;;;;;;11.83;6.10;;;;;;;10.82;100.00;100027.22;7385534;19;20768;-36
2023/05/10 04:31:37;;;;;;;8.00;4.40;;;;;;;10.78;100.00;100020.25;7388145;19;20780;-37
2023/05/10 04:34:09;;;;;;;9.33;4.13;;;;;;;10.82;100.00;100019.50;7392568;19;20421;-39
2023/05/10 04:36:38;;;;;;;10.33;4.80;;;;;;;10.76;100.00;100019.31;7395792;19;20407;-37
2023/05/10 04:39:09;;;;;;;7.80;4.37;;;;;;;10.82;100.00;99998.84;7391333;19;20467;-36
2023/05/10 04:41:40;;;;;;;6.93;3.97;;;;;;;10.75;100.00;99996.91;7395016;19;20432;-37
2023/05/10 04:44:09;;;;;;;12.73;5.33;;;;;;;10.81;100.00;99981.63;7391963;19;20836;-38
2023/05/10 04:46:39;;;;;;;10.70;4.67;;;;;;;10.82;100.00;99996.25;7391640;19;20391;-36
2023/05/10 04:49:11;;;;;;;8.50;4.60;;;;;;;10.92;100.00;100010.34;7391198;19;20420;-36
2023/05/10 04:51:41;;;;;;;8.00;4.10;;;;;;;10.88;100.00;100019.66;7391757;19;20415;-37
2023/05/10 04:54:10;;;;;;;9.53;5.03;;;;;;;10.87;100.00;100007.59;7391759;19;20411;-36
2023/05/10 04:56:40;;;;;;;70.33;38.13;;;;;;;11.02;100.00;99970.16;7392745;19;20484;-37
2023/05/10 04:59:10;;;;;;;12.83;4.90;;;;;;;11.05;100.00;99993.47;7392799;19;20451;-37
2023/05/10 05:01:40;;;;;;;19.33;6.47;;;;;;;11.35;100.00;99970.16;7396351;19;20945;-38
2023/05/10 05:04:12;;;;;;;11.47;5.43;;;;;;;11.39;100.00;100015.03;7386912;19;20439;-37
2023/05/10 05:06:42;;;;;;;10.17;6.00;;;;;;;11.25;100.00;100035.34;7393715;19;20388;-37
2023/05/10 05:09:11;;;;;;;10.97;6.10;;;;;;;11.14;100.00;100035.03;7391414;19;20419;-36
2023/05/10 05:11:41;;;;;;;8.30;4.23;;;;;;;11.20;100.00;100030.06;7392387;19;20396;-36
2023/05/10 05:14:10;;;;;;;8.37;4.87;;;;;;;11.26;100.00;100021.59;7390796;19;20415;-38
2023/05/10 05:16:40;;;;;;;9.33;4.63;;;;;;;11.28;100.00;100024.22;7391574;19;20411;-38
2023/05/10 05:19:12;;;;;;;10.70;5.07;;;;;;;11.31;100.00;100011.38;7393385;19;20447;-36
2023/05/10 05:21:42;;;;;;;7.70;4.87;;;;;;;11.39;100.00;100030.53;7394872;19;20412;-36
2023/05/10 05:24:12;;;;;;;10.10;4.83;;;;;;;11.35;100.00;100054.53;7391250;19;20434;-37
2023/05/10 05:26:41;;;;;;;8.47;4.80;;;;;;;11.39;100.00;100069.25;7391809;19;20395;-36
2023/05/10 05:29:11;;;;;;;11.60;5.67;;;;;;;11.45;100.00;100059.09;7391870;19;20426;-38
2023/05/10 05:31:41;;;;;;;12.10;4.57;;;;;;;11.51;100.00;100052.34;7392846;19;21139;-39
2023/05/10 05:34:13;;;;;;;13.40;4.20;;;;;;;11.52;100.00;100074.75;7390779;19;20429;-36
2023/05/10 05:36:42;;;;;;;7.93;4.87;;;;;;;11.56;100.00;100071.44;7391931;19;20426;-42
2023/05/10 05:39:12;;;;;;;7.60;4.33;;;;;;;11.60;100.00;100084.47;7390752;19;20439;-40
2023/05/10 05:41:42;;;;;;;8.43;4.23;;;;;;;11.66;100.00;100078.59;7391879;19;20399;-37
2023/05/10 05:44:11;;;;;;;9.37;4.50;;;;;;;11.81;100.00;100085.91;7390677;19;20423;-38
2023/05/10 05:46:41;;;;;;;6.53;3.90;;;;;;;11.91;100.00;100105.09;7391034;19;20412;-37
2023/05/10 05:49:13;;;;;;;9.40;4.93;;;;;;;11.85;100.00;100116.13;7390215;19;20451;-37
2023/05/10 05:51:44;;;;;;;9.67;4.93;;;;;;;11.86;100.00;100132.53;7392165;19;20388;-38
2023/05/10 05:54:13;;;;;;;9.77;4.27;;;;;;;11.95;100.00;100137.94;7389869;19;20422;-37
2023/05/10 05:56:44;;;;;;;9.47;4.63;;;;;;;11.96;100.00;100157.81;7391220;19;20407;-42
2023/05/10 05:59:13;;;;;;;10.50;4.40;;;;;;;11.92;100.00;100158.53;7390727;19;20802;-38
2023/05/10 06:01:43;;;;;;;10.70;4.93;;;;;;;12.03;100.00;100148.47;7391022;19;20380;-37
2023/05/10 06:04:15;;;;;;;9.43;4.73;;;;;;;12.08;100.00;100156.38;7389613;19;20419;-37
2023/05/10 06:06:45;;;;;;;6.80;4.30;;;;;;;12.27;100.00;100162.91;7390756;19;21078;-38
2023/05/10 06:09:14;;;;;;;7.90;4.20;;;;;;;12.42;100.00;100162.44;7386091;19;20459;-37
2023/05/10 06:11:44;;;;;;;9.90;4.63;;;;;;;12.45;100.00;100180.59;7395061;19;20793;-43
2023/05/10 06:14:14;;;;;;;7.73;4.53;;;;;;;12.54;100.00;100217.06;7391042;19;20464;-38
2023/05/10 06:16:44;;;;;;;10.20;4.00;;;;;;;12.55;100.00;100216.22;7394445;19;20416;-38
2023/05/10 06:19:17;;;;;;;10.47;4.60;;;;;;;12.69;100.00;100224.34;7393109;19;20435;-39
2023/05/10 06:21:46;;;;;;;6.23;4.07;;;;;;;12.93;100.00;100220.56;7394706;19;20406;-37
2023/05/10 06:24:16;;;;;;;15.57;4.97;;;;;;;12.98;100.00;100253.47;7391907;19;20448;-41
2023/05/10 06:26:45;;;;;;;7.17;4.40;;;;;;;13.03;100.00;100267.41;7392858;19;20412;-37
2023/05/10 06:29:15;;;;;;;8.97;4.60;;;;;;;12.99;100.00;100278.53;7391467;19;20464;-38
2023/05/10 06:31:44;;;;;;;9.20;4.40;;;;;;;12.98;100.00;100289.72;7393848;19;20958;-37
2023/05/10 06:34:17;;;;;;;8.33;4.50;;;;;;;13.10;100.00;100284.84;7391452;19;20443;-38
2023/05/10 06:36:46;;;;;;;8.00;4.30;;;;;;;13.21;100.00;100298.03;7392865;19;20943;-38
2023/05/10 06:39:16;;;;;;;7.93;4.30;;;;;;;13.18;100.00;100318.69;7391704;19;20797;-38
2023/05/10 06:41:45;;;;;;;10.23;4.27;;;;;;;13.22;100.00;100320.50;7394204;19;20409;-37
2023/05/10 06:44:15;;;;;;;11.90;6.60;;;;;;;13.15;100.00;100321.19;7391943;19;20436;-38
2023/05/10 06:46:45;;;;;;;8.20;4.57;;;;;;;13.30;100.00;100313.81;7392597;19;20439;-40
2023/05/10 06:49:17;;;;;;;9.47;4.37;;;;;;;13.30;100.00;100328.47;7389100;19;20991;-37
2023/05/10 06:51:47;;;;;;;9.77;4.67;;;;;;;13.37;100.00;100327.78;7393992;19;20403;-37
2023/05/10 06:54:16;;;;;;;10.73;4.20;;;;;;;13.40;100.00;100342.50;7388199;19;20805;-38
2023/05/10 06:56:46;;;;;;;10.33;4.90;;;;;;;13.33;100.00;100357.91;7392599;19;20408;-38
2023/05/10 06:59:16;;;;;;;11.47;5.03;;;;;;;13.31;100.00;100331.09;7389888;19;20443;-37
2023/05/10 07:01:45;;;;;;;7.93;4.23;;;;;;;13.26;100.00;100327.53;7393946;19;20407;-37
2023/05/10 07:04:18;;;;;;;7.77;4.63;;;;;;;13.29;100.00;100343.16;7388239;19;20498;-37
2023/05/10 07:06:49;;;;;;;6.67;4.30;;;;;;;13.41;100.00;100313.16;7391842;19;21006;-37
2023/05/10 07:09:19;;;;;;;9.87;5.40;;;;;;;13.53;100.00;100336.81;7389078;19;20539;-38
2023/05/10 07:11:48;;;;;;;8.10;4.87;;;;;;;13.61;100.00;100339.56;7392864;19;20405;-37
2023/05/10 07:14:21;;;;;;;8.20;3.90;;;;;;;13.62;100.00;100336.13;7390289;19;20439;-37
2023/05/10 07:16:51;;;;;;;7.80;4.73;;;;;;;13.62;100.00;100344.81;7392340;19;20407;-36
2023/05/10 07:19:25;;;;;;;8.17;4.93;;;;;;;13.78;100.00;100352.91;7389710;19;20975;-38
2023/05/10 07:21:55;;;;;;;7.70;4.70;;;;;;;13.80;100.00;100361.63;7392868;19;20441;-38
2023/05/10 07:24:25;;;;;;;9.40;4.87;;;;;;;13.75;100.00;100374.47;7391489;19;20449;-38
2023/05/10 07:26:55;;;;;;;13.20;7.70;;;;;;;14.02;100.00;100341.31;7392172;19;20419;-37
2023/05/10 07:29:24;;;;;;;14.83;8.57;;;;;;;14.23;100.00;100298.50;7388525;19;20463;-37
2023/05/10 07:31:54;;;;;;;12.30;7.20;;;;;;;14.35;100.00;100355.81;7392928;19;20773;-38
2023/05/10 07:34:30;;;;;;;10.73;4.70;;;;;;;14.50;100.00;100390.72;7389886;19;20778;-38
2023/05/10 07:37:00;;;;;;;9.27;4.43;;;;;;;14.50;100.00;100390.72;7391840;19;20412;-37
2023/05/10 07:39:30;;;;;;;17.23;9.90;;;;;;;14.34;100.00;100384.31;7389436;19;20467;-38
2023/05/10 07:41:59;;;;;;;27.57;14.33;;;;;;;14.68;100.00;100344.31;7394612;19;20423;-38
2023/05/10 07:44:29;;;;;;;32.20;18.87;;;;;;;14.69;100.00;100365.97;7388413;19;20450;-39
2023/05/10 07:46:59;;;;;;;22.63;13.03;;;;;;;14.86;100.00;100374.09;7390884;19;20992;-38
2023/05/10 07:49:31;;;;;;;9.90;6.00;;;;;;;14.75;100.00;100430.16;7387228;19;20465;-38
2023/05/10 07:52:00;;;;;;;19.47;12.43;;;;;;;14.60;100.00;100431.59;7391963;19;20446;-37
2023/05/10 07:54:30;;;;;;;22.27;12.70;;;;;;;14.67;100.00;100415.28;7388337;19;20446;-38
2023/05/10 07:57:00;;;;;;;13.07;5.63;;;;;;;14.57;100.00;100419.41;7383990;19;20427;-37
2023/05/10 07:59:29;;;;;;;7.60;4.30;;;;;;;14.66;100.00;100431.69;7381427;19;20438;-38
2023/05/10 08:01:59;;;;;;;8.60;5.80;;;;;;;14.69;100.00;100430.88;7383238;19;20937;-37
2023/05/10 08:04:31;;;;;;;8.83;5.03;;;;;;;14.76;100.00;100439.72;7384238;19;20425;-38
2023/05/10 08:07:01;;;;;;;11.00;4.53;;;;;;;14.77;100.00;100446.66;7390419;19;20388;-37
2023/05/10 08:09:30;;;;;;;8.20;4.50;;;;;;;14.60;100.00;100441.97;7390450;19;20437;-36
2023/05/10 08:12:00;;;;;;;7.27;4.83;;;;;;;14.36;100.00;100443.19;7393068;19;20408;-37
2023/05/10 08:14:31;;;;;;;10.70;4.97;;;;;;;14.35;100.00;100427.63;7394795;19;20987;-37
2023/05/10 08:17:01;;;;;;;10.97;4.70;;;;;;;14.37;100.00;100420.72;7392034;19;20392;-38
2023/05/10 08:19:33;;;;;;;8.03;4.70;;;;;;;14.50;100.00;100419.28;7391130;19;20783;-39
2023/05/10 08:22:02;;;;;;;10.67;4.80;;;;;;;14.46;100.00;100426.09;7392938;19;20399;-37
2023/05/10 08:24:34;;;;;;;7.80;4.53;;;;;;;14.32;100.00;100431.03;7391777;19;20423;-37
2023/05/10 08:27:04;;;;;;;10.37;4.97;;;;;;;14.58;100.00;100415.97;7392921;19;20416;-37
2023/05/10 08:29:33;;;;;;;12.00;4.60;;;;;;;14.72;100.00;100423.19;7386596;19;20439;-36
2023/05/10 08:32:18;;;;;;;6.90;4.37;;;;;;;14.74;100.00;100405.94;7390216;19;20977;-38
2023/05/10 08:34:50;;;;;;;8.03;4.63;;;;;;;14.65;100.00;100421.28;7394032;19;20425;-38
2023/05/10 08:37:20;;;;;;;7.10;4.40;;;;;;;14.57;100.00;100428.94;7389237;19;20943;-37
2023/05/10 08:39:50;;;;;;;15.17;5.07;;;;;;;14.68;100.00;100422.22;7392688;19;20399;-37
2023/05/10 08:42:22;;;;;;;8.40;4.80;;;;;;;14.82;100.00;100419.06;7389199;19;21002;-38
2023/05/10 08:44:54;;;;;;;10.83;5.10;;;;;;;14.95;100.00;100439.22;7392171;19;20395;-38
2023/05/10 08:47:24;;;;;;;13.57;5.10;;;;;;;14.95;100.00;100441.81;7386969;19;21095;-38
2023/05/10 08:49:57;;;;;;;8.93;4.40;;;;;;;14.88;100.00;100465.94;7391619;19;20401;-37
2023/05/10 08:52:29;;;;;;;8.03;4.30;;;;;;;14.60;100.00;100480.03;7389422;19;20399;-37
2023/05/10 08:54:59;;;;;;;9.87;4.80;;;;;;;14.40;100.00;100468.38;7392057;19;20419;-37
2023/05/10 08:57:28;;;;;;;11.03;5.40;;;;;;;14.35;100.00;100458.75;7389069;19;20450;-37
2023/05/10 08:59:58;;;;;;;10.37;5.60;;;;;;;14.52;100.00;100461.72;7393628;19;20420;-37
2023/05/10 09:02:27;;;;;;;12.30;5.77;;;;;;;14.37;100.00;100457.94;7389446;19;20989;-38
2023/05/10 09:05:00;;;;;;;10.43;4.87;;;;;;;14.48;100.00;100454.69;7392350;19;20391;-37
2023/05/10 09:07:30;;;;;;;13.07;5.80;;;;;;;14.66;100.00;100436.91;7389358;19;20443;-37
2023/05/10 09:10:00;;;;;;;9.33;5.63;;;;;;;14.85;100.00;100450.28;7396878;19;20841;-37
2023/05/10 09:12:30;;;;;;;11.43;4.87;;;;;;;14.93;100.00;100472.06;7389272;19;20433;-38
2023/05/10 09:15:00;;;;;;;10.17;5.30;;;;;;;15.04;100.00;100481.78;7394810;19;21027;-38
2023/05/10 09:17:30;;;;;;;9.80;4.77;;;;;;;15.29;100.00;100479.66;7387812;19;20427;-37
2023/05/10 09:20:04;;;;;;;11.73;5.80;;;;;;;15.43;100.00;100500.69;7392118;19;20478;-38
2023/05/10 09:22:34;;;;;;;9.33;5.17;;;;;;;15.37;100.00;100511.84;7388530;19;20403;-37
2023/05/10 09:25:08;;;;;;;22.53;6.23;;;;;;;15.37;100.00;100519.63;7392292;19;20398;-37
2023/05/10 09:27:38;;;;;;;13.83;5.53;;;;;;;15.38;100.00;100516.19;7388199;19;20429;-37
2023/05/10 09:30:09;;;;;;;10.30;4.77;;;;;;;15.44;100.00;100507.66;7393609;19;20753;-38
2023/05/10 09:32:39;;;;;;;12.60;6.80;;;;;;;15.62;100.00;100512.28;7388833;19;20773;-37
2023/05/10 09:35:16;;;;;;;66.20;40.00;;;;;;;16.02;100.00;100497.38;7392434;19;20392;-37
2023/05/10 09:37:49;;;;;;;11.43;6.90;;;;;;;16.01;100.00;100537.22;7388911;19;20816;-37
2023/05/10 09:40:20;;;;;;;14.20;5.50;;;;;;;15.59;100.00;100544.28;7392711;19;20384;-38
2023/05/10 09:42:59;;;;;;;27.50;15.60;;;;;;;15.46;100.00;100501.63;7389825;19;20785;-37
2023/05/10 09:45:31;;;;;;;22.00;14.50;;;;;;;15.49;100.00;100506.00;7392307;19;20387;-38
2023/05/10 09:48:02;;;;;;;11.03;5.87;;;;;;;15.17;100.00;100520.16;7388679;19;20956;-37
2023/05/10 09:50:34;;;;;;;13.23;6.93;;;;;;;15.10;100.00;100497.50;7391724;19;20398;-38
2023/05/10 09:53:05;;;;;;;13.27;8.20;;;;;;;15.02;100.00;100486.94;7389792;19;20741;-37
2023/05/10 09:55:44;;;;;;;21.13;11.20;;;;;;;15.09;100.00;100464.56;7390786;19;20406;-37
2023/05/10 09:58:14;;;;;;;11.93;5.70;;;;;;;15.11;100.00;100487.16;7388465;19;20427;-37
2023/05/10 10:00:47;;;;;;;11.93;6.70;;;;;;;15.28;100.00;100483.09;7390808;19;20398;-37
2023/05/10 10:03:18;;;;;;;11.90;6.83;;;;;;;15.27;100.00;100478.75;7389175;19;20494;-37
2023/05/10 10:05:51;;;;;;;9.60;6.00;;;;;;;15.13;100.00;100479.38;7391147;19;20411;-38
2023/05/10 10:08:22;;;;;;;12.43;5.93;;;;;;;15.09;100.00;100444.66;7388630;19;20403;-38
2023/05/10 10:10:51;;;;;;;9.33;5.87;;;;;;;14.67;100.00;100372.88;7391342;19;20425;-37
2023/05/10 10:13:21;;;;;;;23.50;6.60;;;;;;;14.63;100.00;100317.44;7388991;19;20441;-38
2023/05/10 10:15:52;;;;;;;16.90;5.97;;;;;;;14.44;100.00;100257.38;7391259;19;20420;-36
2023/05/10 10:18:26;;;;;;;12.60;6.27;;;;;;;14.15;100.00;100198.06;7388564;19;20411;-37
2023/05/10 10:20:59;;;;;;;9.70;6.13;;;;;;;14.05;100.00;100149.44;7392543;19;20396;-37
2023/05/10 10:23:29;;;;;;;9.23;5.20;;;;;;;13.74;100.00;100081.50;7387867;19;20430;-36
2023/05/10 10:25:59;;;;;;;10.90;6.73;;;;;;;13.46;100.00;100008.41;7390845;19;20781;-40
2023/05/10 10:28:36;;;;;;;11.63;7.30;;;;;;;13.24;100.00;100060.66;7388769;19;20435;-37
2023/05/10 10:31:16;;;;;;;17.80;7.47;;;;;;;12.92;100.00;100192.94;7393789;19;20435;-37
2023/05/10 10:33:58;;;;;;;14.40;8.00;;;;;;;12.78;100.00;100290.09;7391198;19;20467;-37
2023/05/10 10:36:31;;;;;;;14.80;7.90;;;;;;;12.63;100.00;100425.16;7394008;19;20422;-37
2023/05/10 10:39:04;;;;;;;17.20;8.77;;;;;;;12.47;100.00;100511.81;7390112;19;20467;-38
2023/05/10 10:41:35;;;;;;;15.67;9.17;;;;;;;12.39;100.00;100651.28;7393388;19;20430;-37
2023/05/10 10:44:26;;;;;;;14.00;8.93;;;;;;;12.33;100.00;100736.47;7390393;19;20770;-37
2023/05/10 10:47:22;;;;;;;18.70;11.40;;;;;;;12.40;100.00;100828.97;7393038;19;20975;-37
2023/05/10 10:49:56;;;;;;;16.07;8.80;;;;;;;12.34;100.00;100890.84;7394427;19;20799;-37
2023/05/10 10:52:33;;;;;;;32.73;15.80;;;;;;;12.32;100.00;100923.56;7389745;19;20431;-36
2023/05/10 10:55:05;;;;;;;15.40;9.30;;;;;;;12.36;100.00;100941.84;7393695;19;20411;-37
2023/05/10 10:57:35;;;;;;;25.63;12.73;;;;;;;12.36;100.00;100953.91;7388522;19;20411;-37
2023/05/10 11:00:24;;;;;;;16.30;9.80;;;;;;;12.42;100.00;100930.84;7394018;19;20403;-36
2023/05/10 11:02:55;;;;;;;25.37;10.97;;;;;;;12.51;100.00;100822.47;7389211;19;20494;-37
2023/05/10 11:05:37;;;;;;;18.00;12.20;;;;;;;12.54;100.00;100750.16;7395012;19;20423;-37
2023/05/10 11:08:14;;;;;;;15.63;10.00;;;;;;;12.46;100.00;100743.81;7387104;19;20410;-40
2023/05/10 11:10:53;;;;;;;14.60;9.80;;;;;;;12.50;100.00;100734.44;7391381;19;20435;-37
2023/05/10 11:13:33;;;;;;;15.53;10.00;;;;;;;12.64;100.00;100730.63;7389042;19;20439;-38
2023/05/10 11:16:13;;;;;;;14.50;10.37;;;;;;;12.80;100.00;100718.16;7392922;19;20408;-37
2023/05/10 11:18:46;;;;;;;18.70;10.20;;;;;;;12.73;100.00;100736.91;7388594;19;20467;-39
2023/05/10 11:21:18;;;;;;;15.43;9.43;;;;;;;12.67;100.00;100750.56;7393579;19;20480;-38
2023/05/10 11:23:56;;;;;;;14.20;9.37;;;;;;;12.75;100.00;100759.44;7387727;19;20467;-37
2023/05/10 11:26:26;;;;;;;18.43;9.00;;;;;;;12.77;100.00;100757.78;7392151;19;20414;-37
2023/05/10 11:28:58;;;;;;;15.53;9.40;;;;;;;12.73;100.00;100767.97;7388723;19;20438;-37
2023/05/10 11:31:28;;;;;;;12.93;9.33;;;;;;;12.78;100.00;100764.69;7391093;19;20947;-37